Terminal Aerodrome Forecast
Issued by NWS

Home | Current Version | Previous Version | Text Only | Print | Product List | Glossary On
Versions: 1 2 3 4 5 6 7 8 9 10 11 12 13 14 15 16 17 18 19 20 21
000
FTUS43 KPAH 030520
TAFCGI
TAF
KCGI 030520Z 0306/0406 VRB03KT P6SM VCSH SCT035 BKN150
     FM030900 VRB03KT 6SM BR VCSH BKN020
     FM031400 VRB04KT P6SM SCT025 BKN035 PROB30 0317/0321 TS
      SCT025CB
     FM040000 01003KT P6SM FEW040=

USA.gov is the U.S. government's official web portal to all federal, state and local government web resources and services.